sensor_id;sensor_type;location;lat;lon;timestamp;temperature;humidity
2955;DHT22;1487;51.470;6.938;2023-03-12T00:01:39;2.50;99.90
2955;DHT22;1487;51.470;6.938;2023-03-12T00:04:06;2.50;99.90
2955;DHT22;1487;51.470;6.938;2023-03-12T00:06:33;2.50;99.90
2955;DHT22;1487;51.470;6.938;2023-03-12T00:09:00;2.40;99.90
2955;DHT22;1487;51.470;6.938;2023-03-12T00:11:28;2.40;99.90
2955;DHT22;1487;51.470;6.938;2023-03-12T00:13:57;2.40;99.90
2955;DHT22;1487;51.470;6.938;2023-03-12T00:16:25;2.40;99.90
2955;DHT22;1487;51.470;6.938;2023-03-12T00:18:54;2.40;99.90
2955;DHT22;1487;51.470;6.938;2023-03-12T00:21:22;2.50;99.90
2955;DHT22;1487;51.470;6.938;2023-03-12T00:23:50;2.50;99.90
2955;DHT22;1487;51.470;6.938;2023-03-12T00:26:18;2.40;99.90
2955;DHT22;1487;51.470;6.938;2023-03-12T00:28:47;2.50;99.90
2955;DHT22;1487;51.470;6.938;2023-03-12T00:31:18;2.50;99.90
2955;DHT22;1487;51.470;6.938;2023-03-12T00:33:46;2.50;99.90
2955;DHT22;1487;51.470;6.938;2023-03-12T00:36:14;2.50;99.90
2955;DHT22;1487;51.470;6.938;2023-03-12T00:38:42;2.60;99.90
2955;DHT22;1487;51.470;6.938;2023-03-12T00:41:09;2.60;99.90
2955;DHT22;1487;51.470;6.938;2023-03-12T00:43:37;2.60;99.90
2955;DHT22;1487;51.470;6.938;2023-03-12T00:46:04;2.70;99.90
2955;DHT22;1487;51.470;6.938;2023-03-12T00:48:32;2.70;99.90
2955;DHT22;1487;51.470;6.938;2023-03-12T00:50:59;2.70;99.90
2955;DHT22;1487;51.470;6.938;2023-03-12T00:53:26;2.60;99.90
2955;DHT22;1487;51.470;6.938;2023-03-12T00:55:52;2.70;99.90
2955;DHT22;1487;51.470;6.938;2023-03-12T00:58:19;2.70;99.90
2955;DHT22;1487;51.470;6.938;2023-03-12T01:00:46;2.70;99.90
2955;DHT22;1487;51.470;6.938;2023-03-12T01:03:13;2.70;99.90
2955;DHT22;1487;51.470;6.938;2023-03-12T01:05:41;2.70;99.90
2955;DHT22;1487;51.470;6.938;2023-03-12T01:08:09;2.70;99.90
2955;DHT22;1487;51.470;6.938;2023-03-12T01:10:40;2.70;99.90
2955;DHT22;1487;51.470;6.938;2023-03-12T01:13:08;2.70;99.90
2955;DHT22;1487;51.470;6.938;2023-03-12T01:15:35;2.70;99.90
2955;DHT22;1487;51.470;6.938;2023-03-12T01:18:02;2.70;99.90
2955;DHT22;1487;51.470;6.938;2023-03-12T01:20:29;2.70;99.90
2955;DHT22;1487;51.470;6.938;2023-03-12T01:22:57;2.70;99.90
2955;DHT22;1487;51.470;6.938;2023-03-12T01:25:24;2.60;99.90
2955;DHT22;1487;51.470;6.938;2023-03-12T01:27:50;2.60;99.90
2955;DHT22;1487;51.470;6.938;2023-03-12T01:30:17;2.60;99.90
2955;DHT22;1487;51.470;6.938;2023-03-12T01:32:44;2.70;99.90
2955;DHT22;1487;51.470;6.938;2023-03-12T01:35:11;2.70;99.90
2955;DHT22;1487;51.470;6.938;2023-03-12T01:37:38;2.70;99.90
2955;DHT22;1487;51.470;6.938;2023-03-12T01:40:07;2.80;99.90
2955;DHT22;1487;51.470;6.938;2023-03-12T01:42:34;2.80;99.90
2955;DHT22;1487;51.470;6.938;2023-03-12T01:45:03;2.80;99.90
2955;DHT22;1487;51.470;6.938;2023-03-12T01:47:30;2.80;99.90
2955;DHT22;1487;51.470;6.938;2023-03-12T01:49:57;2.90;99.90
2955;DHT22;1487;51.470;6.938;2023-03-12T01:52:28;2.90;99.90
2955;DHT22;1487;51.470;6.938;2023-03-12T01:54:58;2.90;99.90
2955;DHT22;1487;51.470;6.938;2023-03-12T01:57:33;2.90;99.90
2955;DHT22;1487;51.470;6.938;2023-03-12T02:00:03;2.90;99.90
2955;DHT22;1487;51.470;6.938;2023-03-12T02:02:32;3.00;99.90
2955;DHT22;1487;51.470;6.938;2023-03-12T02:05:05;3.00;99.90
2955;DHT22;1487;51.470;6.938;2023-03-12T02:07:33;3.00;99.90
2955;DHT22;1487;51.470;6.938;2023-03-12T02:10:01;3.00;99.90
2955;DHT22;1487;51.470;6.938;2023-03-12T02:12:38;3.00;99.90
2955;DHT22;1487;51.470;6.938;2023-03-12T02:15:07;3.00;99.90
2955;DHT22;1487;51.470;6.938;2023-03-12T02:17:35;3.00;99.90
2955;DHT22;1487;51.470;6.938;2023-03-12T02:20:12;3.00;99.90
2955;DHT22;1487;51.470;6.938;2023-03-12T02:22:43;3.00;99.90
2955;DHT22;1487;51.470;6.938;2023-03-12T02:25:20;3.00;99.90
2955;DHT22;1487;51.470;6.938;2023-03-12T02:27:52;3.00;99.90
2955;DHT22;1487;51.470;6.938;2023-03-12T02:30:19;3.00;99.90
2955;DHT22;1487;51.470;6.938;2023-03-12T02:32:47;2.90;99.90
2955;DHT22;1487;51.470;6.938;2023-03-12T02:35:16;3.00;99.90
2955;DHT22;1487;51.470;6.938;2023-03-12T02:37:47;3.00;99.90
2955;DHT22;1487;51.470;6.938;2023-03-12T02:40:19;3.00;99.90
2955;DHT22;1487;51.470;6.938;2023-03-12T02:42:48;3.00;99.90
2955;DHT22;1487;51.470;6.938;2023-03-12T02:45:15;3.00;99.90
2955;DHT22;1487;51.470;6.938;2023-03-12T02:47:43;3.00;99.90
2955;DHT22;1487;51.470;6.938;2023-03-12T02:50:10;3.00;99.90
2955;DHT22;1487;51.470;6.938;2023-03-12T02:52:37;3.00;99.90
2955;DHT22;1487;51.470;6.938;2023-03-12T02:55:05;3.00;99.90
2955;DHT22;1487;51.470;6.938;2023-03-12T02:57:33;3.00;99.90
2955;DHT22;1487;51.470;6.938;2023-03-12T03:00:03;3.00;99.90
2955;DHT22;1487;51.470;6.938;2023-03-12T03:02:30;3.00;99.90
2955;DHT22;1487;51.470;6.938;2023-03-12T03:04:57;3.00;99.90
2955;DHT22;1487;51.470;6.938;2023-03-12T03:07:24;3.00;99.90
2955;DHT22;1487;51.470;6.938;2023-03-12T03:09:51;3.10;99.90
2955;DHT22;1487;51.470;6.938;2023-03-12T03:12:18;3.00;99.90
2955;DHT22;1487;51.470;6.938;2023-03-12T03:14:49;3.00;99.90
2955;DHT22;1487;51.470;6.938;2023-03-12T03:17:16;3.00;99.90
2955;DHT22;1487;51.470;6.938;2023-03-12T03:19:44;3.00;99.90
2955;DHT22;1487;51.470;6.938;2023-03-12T03:22:11;3.00;99.90
2955;DHT22;1487;51.470;6.938;2023-03-12T03:24:38;3.00;99.90
2955;DHT22;1487;51.470;6.938;2023-03-12T03:27:05;3.00;99.90
2955;DHT22;1487;51.470;6.938;2023-03-12T03:29:33;3.00;99.90
2955;DHT22;1487;51.470;6.938;2023-03-12T03:32:01;3.00;99.90
2955;DHT22;1487;51.470;6.938;2023-03-12T03:34:28;3.00;99.90
2955;DHT22;1487;51.470;6.938;2023-03-12T03:36:55;3.00;99.90
2955;DHT22;1487;51.470;6.938;2023-03-12T03:39:22;3.00;99.90
2955;DHT22;1487;51.470;6.938;2023-03-12T03:41:49;3.00;99.90
2955;DHT22;1487;51.470;6.938;2023-03-12T03:44:16;3.00;99.90
2955;DHT22;1487;51.470;6.938;2023-03-12T03:46:43;3.00;99.90
2955;DHT22;1487;51.470;6.938;2023-03-12T03:49:12;3.00;99.90
2955;DHT22;1487;51.470;6.938;2023-03-12T03:51:39;3.10;99.90
2955;DHT22;1487;51.470;6.938;2023-03-12T03:54:07;3.10;99.90
2955;DHT22;1487;51.470;6.938;2023-03-12T03:56:34;3.10;99.90
2955;DHT22;1487;51.470;6.938;2023-03-12T03:59:01;3.10;99.90
2955;DHT22;1487;51.470;6.938;2023-03-12T04:01:29;3.20;99.90
2955;DHT22;1487;51.470;6.938;2023-03-12T04:03:56;3.20;99.90
2955;DHT22;1487;51.470;6.938;2023-03-12T04:06:25;3.20;99.90
2955;DHT22;1487;51.470;6.938;2023-03-12T04:08:52;3.20;99.90
2955;DHT22;1487;51.470;6.938;2023-03-12T04:11:20;3.20;99.90
2955;DHT22;1487;51.470;6.938;2023-03-12T04:13:47;3.20;99.90
2955;DHT22;1487;51.470;6.938;2023-03-12T04:16:15;3.30;99.90
2955;DHT22;1487;51.470;6.938;2023-03-12T04:18:42;3.30;99.90
2955;DHT22;1487;51.470;6.938;2023-03-12T04:21:11;3.30;99.90
2955;DHT22;1487;51.470;6.938;2023-03-12T04:23:39;3.30;99.90
2955;DHT22;1487;51.470;6.938;2023-03-12T04:26:06;3.30;99.90
2955;DHT22;1487;51.470;6.938;2023-03-12T04:28:33;3.30;99.90
2955;DHT22;1487;51.470;6.938;2023-03-12T04:31:02;3.30;99.90
2955;DHT22;1487;51.470;6.938;2023-03-12T04:33:32;3.30;99.90
2955;DHT22;1487;51.470;6.938;2023-03-12T04:35:59;3.40;99.90
2955;DHT22;1487;51.470;6.938;2023-03-12T04:38:26;3.40;99.90
2955;DHT22;1487;51.470;6.938;2023-03-12T04:40:59;3.40;99.90
2955;DHT22;1487;51.470;6.938;2023-03-12T04:43:27;3.40;99.90
2955;DHT22;1487;51.470;6.938;2023-03-12T04:45:55;3.40;99.90
2955;DHT22;1487;51.470;6.938;2023-03-12T04:48:23;3.40;99.90
2955;DHT22;1487;51.470;6.938;2023-03-12T04:50:51;3.40;99.90
2955;DHT22;1487;51.470;6.938;2023-03-12T04:53:19;3.40;99.90
2955;DHT22;1487;51.470;6.938;2023-03-12T04:55:45;3.40;99.90
2955;DHT22;1487;51.470;6.938;2023-03-12T04:58:14;3.40;99.90
2955;DHT22;1487;51.470;6.938;2023-03-12T05:00:41;3.40;99.90
2955;DHT22;1487;51.470;6.938;2023-03-12T05:03:09;3.40;99.90
2955;DHT22;1487;51.470;6.938;2023-03-12T05:05:36;3.50;99.90
2955;DHT22;1487;51.470;6.938;2023-03-12T05:08:03;3.50;99.90
2955;DHT22;1487;51.470;6.938;2023-03-12T05:10:30;3.50;99.90
2955;DHT22;1487;51.470;6.938;2023-03-12T05:12:57;3.40;99.90
2955;DHT22;1487;51.470;6.938;2023-03-12T05:15:25;3.40;99.90
2955;DHT22;1487;51.470;6.938;2023-03-12T05:17:52;3.40;99.90
2955;DHT22;1487;51.470;6.938;2023-03-12T05:20:19;3.40;99.90
2955;DHT22;1487;51.470;6.938;2023-03-12T05:22:46;3.50;99.90
2955;DHT22;1487;51.470;6.938;2023-03-12T05:25:13;3.50;99.90
2955;DHT22;1487;51.470;6.938;2023-03-12T05:27:40;3.50;99.90
2955;DHT22;1487;51.470;6.938;2023-03-12T05:30:08;3.50;99.90
2955;DHT22;1487;51.470;6.938;2023-03-12T05:32:37;3.50;99.90
2955;DHT22;1487;51.470;6.938;2023-03-12T05:35:04;3.50;99.90
2955;DHT22;1487;51.470;6.938;2023-03-12T05:37:31;3.50;99.90
2955;DHT22;1487;51.470;6.938;2023-03-12T05:39:58;3.50;99.90
2955;DHT22;1487;51.470;6.938;2023-03-12T05:42:25;3.50;99.90
2955;DHT22;1487;51.470;6.938;2023-03-12T05:44:52;3.50;99.90
2955;DHT22;1487;51.470;6.938;2023-03-12T05:47:19;3.50;99.90
2955;DHT22;1487;51.470;6.938;2023-03-12T05:49:47;3.40;99.90
2955;DHT22;1487;51.470;6.938;2023-03-12T05:52:14;3.40;99.90
2955;DHT22;1487;51.470;6.938;2023-03-12T05:54:40;3.40;99.90
2955;DHT22;1487;51.470;6.938;2023-03-12T05:57:07;3.40;99.90
2955;DHT22;1487;51.470;6.938;2023-03-12T05:59:34;3.30;99.90
2955;DHT22;1487;51.470;6.938;2023-03-12T06:02:01;3.40;99.90
2955;DHT22;1487;51.470;6.938;2023-03-12T06:04:28;3.40;99.90
2955;DHT22;1487;51.470;6.938;2023-03-12T06:06:57;3.30;99.90
2955;DHT22;1487;51.470;6.938;2023-03-12T06:09:24;3.30;99.90
2955;DHT22;1487;51.470;6.938;2023-03-12T06:11:51;3.30;99.90
2955;DHT22;1487;51.470;6.938;2023-03-12T06:14:17;3.30;99.90
2955;DHT22;1487;51.470;6.938;2023-03-12T06:16:44;3.20;99.90
2955;DHT22;1487;51.470;6.938;2023-03-12T06:19:11;3.20;99.90
2955;DHT22;1487;51.470;6.938;2023-03-12T06:21:41;3.20;99.90
2955;DHT22;1487;51.470;6.938;2023-03-12T06:24:10;3.10;99.90
2955;DHT22;1487;51.470;6.938;2023-03-12T06:26:36;3.20;99.90
2955;DHT22;1487;51.470;6.938;2023-03-12T06:29:05;3.10;99.90
2955;DHT22;1487;51.470;6.938;2023-03-12T06:31:32;3.20;99.90
2955;DHT22;1487;51.470;6.938;2023-03-12T06:33:58;3.20;99.90
2955;DHT22;1487;51.470;6.938;2023-03-12T06:36:25;3.20;99.90
2955;DHT22;1487;51.470;6.938;2023-03-12T06:38:52;3.30;99.90
2955;DHT22;1487;51.470;6.938;2023-03-12T06:41:21;3.30;99.90
2955;DHT22;1487;51.470;6.938;2023-03-12T06:43:47;3.30;99.90
2955;DHT22;1487;51.470;6.938;2023-03-12T06:46:16;3.20;99.90
2955;DHT22;1487;51.470;6.938;2023-03-12T06:48:43;3.20;99.90
2955;DHT22;1487;51.470;6.938;2023-03-12T06:51:13;3.20;99.90
2955;DHT22;1487;51.470;6.938;2023-03-12T06:53:40;3.20;99.90
2955;DHT22;1487;51.470;6.938;2023-03-12T06:56:07;3.20;99.90
2955;DHT22;1487;51.470;6.938;2023-03-12T06:58:36;3.20;99.90
2955;DHT22;1487;51.470;6.938;2023-03-12T07:01:03;3.20;99.90
2955;DHT22;1487;51.470;6.938;2023-03-12T07:03:31;3.10;99.90
2955;DHT22;1487;51.470;6.938;2023-03-12T07:05:58;3.10;99.90
2955;DHT22;1487;51.470;6.938;2023-03-12T07:08:25;3.10;99.90
2955;DHT22;1487;51.470;6.938;2023-03-12T07:10:54;3.10;99.90
2955;DHT22;1487;51.470;6.938;2023-03-12T07:13:21;3.00;99.90
2955;DHT22;1487;51.470;6.938;2023-03-12T07:15:49;3.00;99.90
2955;DHT22;1487;51.470;6.938;2023-03-12T07:18:16;3.00;99.90
2955;DHT22;1487;51.470;6.938;2023-03-12T07:20:43;3.00;99.90
2955;DHT22;1487;51.470;6.938;2023-03-12T07:23:12;3.00;99.90
2955;DHT22;1487;51.470;6.938;2023-03-12T07:25:41;3.00;99.90
2955;DHT22;1487;51.470;6.938;2023-03-12T07:28:11;3.10;99.90
2955;DHT22;1487;51.470;6.938;2023-03-12T07:30:39;3.20;99.90
2955;DHT22;1487;51.470;6.938;2023-03-12T07:33:09;3.20;99.90
2955;DHT22;1487;51.470;6.938;2023-03-12T07:35:37;3.30;99.90
2955;DHT22;1487;51.470;6.938;2023-03-12T07:38:05;3.30;99.90
2955;DHT22;1487;51.470;6.938;2023-03-12T07:40:32;3.30;99.90
2955;DHT22;1487;51.470;6.938;2023-03-12T07:42:59;3.30;99.90
2955;DHT22;1487;51.470;6.938;2023-03-12T07:45:26;3.40;99.90
2955;DHT22;1487;51.470;6.938;2023-03-12T07:47:53;3.40;99.90
2955;DHT22;1487;51.470;6.938;2023-03-12T07:50:21;3.40;99.90
2955;DHT22;1487;51.470;6.938;2023-03-12T07:52:48;3.40;99.90
2955;DHT22;1487;51.470;6.938;2023-03-12T07:55:16;3.40;99.90
2955;DHT22;1487;51.470;6.938;2023-03-12T07:57:43;3.40;99.90
2955;DHT22;1487;51.470;6.938;2023-03-12T08:00:11;3.50;99.90
2955;DHT22;1487;51.470;6.938;2023-03-12T08:02:38;3.40;99.90
2955;DHT22;1487;51.470;6.938;2023-03-12T08:05:06;3.40;99.90
2955;DHT22;1487;51.470;6.938;2023-03-12T08:07:34;3.40;99.90
2955;DHT22;1487;51.470;6.938;2023-03-12T08:10:05;3.50;99.90
2955;DHT22;1487;51.470;6.938;2023-03-12T08:12:33;3.60;99.90
2955;DHT22;1487;51.470;6.938;2023-03-12T08:15:02;3.60;99.90
2955;DHT22;1487;51.470;6.938;2023-03-12T08:17:29;3.50;99.90
2955;DHT22;1487;51.470;6.938;2023-03-12T08:19:56;3.50;99.90
2955;DHT22;1487;51.470;6.938;2023-03-12T08:22:25;3.50;99.90
2955;DHT22;1487;51.470;6.938;2023-03-12T08:24:53;3.60;99.90
2955;DHT22;1487;51.470;6.938;2023-03-12T08:27:20;3.60;99.90
2955;DHT22;1487;51.470;6.938;2023-03-12T08:29:47;3.70;99.90
2955;DHT22;1487;51.470;6.938;2023-03-12T08:32:14;3.80;99.90
2955;DHT22;1487;51.470;6.938;2023-03-12T08:34:42;3.90;99.90
2955;DHT22;1487;51.470;6.938;2023-03-12T08:37:09;3.90;99.90
2955;DHT22;1487;51.470;6.938;2023-03-12T08:39:36;4.00;99.90
2955;DHT22;1487;51.470;6.938;2023-03-12T08:42:04;4.10;99.90
2955;DHT22;1487;51.470;6.938;2023-03-12T08:44:32;4.20;99.90
2955;DHT22;1487;51.470;6.938;2023-03-12T08:46:59;4.40;99.90
2955;DHT22;1487;51.470;6.938;2023-03-12T08:49:26;4.50;99.90
2955;DHT22;1487;51.470;6.938;2023-03-12T08:51:53;4.50;99.90
2955;DHT22;1487;51.470;6.938;2023-03-12T08:54:20;4.50;99.90
2955;DHT22;1487;51.470;6.938;2023-03-12T08:56:49;4.60;99.90
2955;DHT22;1487;51.470;6.938;2023-03-12T08:59:18;4.70;99.90
2955;DHT22;1487;51.470;6.938;2023-03-12T09:01:47;4.60;99.90
2955;DHT22;1487;51.470;6.938;2023-03-12T09:04:14;4.60;99.90
2955;DHT22;1487;51.470;6.938;2023-03-12T09:06:41;4.60;99.90
2955;DHT22;1487;51.470;6.938;2023-03-12T09:09:08;4.60;99.90
2955;DHT22;1487;51.470;6.938;2023-03-12T09:11:36;4.60;99.90
2955;DHT22;1487;51.470;6.938;2023-03-12T09:14:04;4.50;99.90
2955;DHT22;1487;51.470;6.938;2023-03-12T09:16:33;4.50;99.90
2955;DHT22;1487;51.470;6.938;2023-03-12T09:19:01;4.30;99.90
2955;DHT22;1487;51.470;6.938;2023-03-12T09:21:28;4.20;99.90
2955;DHT22;1487;51.470;6.938;2023-03-12T09:23:55;4.30;99.90
2955;DHT22;1487;51.470;6.938;2023-03-12T09:26:22;4.30;99.90
2955;DHT22;1487;51.470;6.938;2023-03-12T09:28:49;4.30;99.90
2955;DHT22;1487;51.470;6.938;2023-03-12T09:31:16;4.30;99.90
2955;DHT22;1487;51.470;6.938;2023-03-12T09:33:44;4.40;99.90
2955;DHT22;1487;51.470;6.938;2023-03-12T09:36:11;4.40;99.90
2955;DHT22;1487;51.470;6.938;2023-03-12T09:38:38;4.50;99.90
2955;DHT22;1487;51.470;6.938;2023-03-12T09:41:11;4.40;99.90
2955;DHT22;1487;51.470;6.938;2023-03-12T09:43:43;4.40;99.90
2955;DHT22;1487;51.470;6.938;2023-03-12T09:46:17;4.50;99.90
2955;DHT22;1487;51.470;6.938;2023-03-12T09:48:47;4.40;99.90
2955;DHT22;1487;51.470;6.938;2023-03-12T09:51:20;4.40;99.90
2955;DHT22;1487;51.470;6.938;2023-03-12T09:53:51;4.40;99.90
2955;DHT22;1487;51.470;6.938;2023-03-12T09:56:21;4.40;99.90
2955;DHT22;1487;51.470;6.938;2023-03-12T09:58:49;4.50;99.90
2955;DHT22;1487;51.470;6.938;2023-03-12T10:01:36;4.50;99.90
2955;DHT22;1487;51.470;6.938;2023-03-12T10:06:59;4.60;99.90
2955;DHT22;1487;51.470;6.938;2023-03-12T10:09:45;4.60;99.90
2955;DHT22;1487;51.470;6.938;2023-03-12T10:12:22;4.60;99.90
2955;DHT22;1487;51.470;6.938;2023-03-12T10:15:01;4.70;99.90
2955;DHT22;1487;51.470;6.938;2023-03-12T10:17:40;4.70;99.90
2955;DHT22;1487;51.470;6.938;2023-03-12T10:20:26;4.80;99.90
2955;DHT22;1487;51.470;6.938;2023-03-12T10:23:00;4.90;99.90
2955;DHT22;1487;51.470;6.938;2023-03-12T10:25:33;5.00;99.90
2955;DHT22;1487;51.470;6.938;2023-03-12T10:28:09;5.00;99.90
2955;DHT22;1487;51.470;6.938;2023-03-12T10:30:41;5.00;99.90
2955;DHT22;1487;51.470;6.938;2023-03-12T10:33:11;5.00;99.90
2955;DHT22;1487;51.470;6.938;2023-03-12T10:35:40;5.00;99.90
2955;DHT22;1487;51.470;6.938;2023-03-12T10:38:12;4.90;99.90
2955;DHT22;1487;51.470;6.938;2023-03-12T10:40:40;5.00;99.90
2955;DHT22;1487;51.470;6.938;2023-03-12T10:43:07;5.00;99.90
2955;DHT22;1487;51.470;6.938;2023-03-12T10:45:38;5.10;99.90
2955;DHT22;1487;51.470;6.938;2023-03-12T10:48:07;5.10;99.90
2955;DHT22;1487;51.470;6.938;2023-03-12T10:50:37;5.10;99.90
2955;DHT22;1487;51.470;6.938;2023-03-12T10:53:21;5.10;99.90
2955;DHT22;1487;51.470;6.938;2023-03-12T10:55:59;5.20;99.90
2955;DHT22;1487;51.470;6.938;2023-03-12T10:58:31;5.20;99.90
2955;DHT22;1487;51.470;6.938;2023-03-12T11:01:00;5.20;99.90
2955;DHT22;1487;51.470;6.938;2023-03-12T11:03:27;5.30;99.90
2955;DHT22;1487;51.470;6.938;2023-03-12T11:05:57;5.30;99.90
2955;DHT22;1487;51.470;6.938;2023-03-12T11:08:27;5.40;99.90
2955;DHT22;1487;51.470;6.938;2023-03-12T11:10:55;5.40;99.90
2955;DHT22;1487;51.470;6.938;2023-03-12T11:13:29;5.50;99.90
2955;DHT22;1487;51.470;6.938;2023-03-12T11:15:57;5.50;99.90
2955;DHT22;1487;51.470;6.938;2023-03-12T11:18:31;5.60;99.90
2955;DHT22;1487;51.470;6.938;2023-03-12T11:21:13;5.70;99.90
2955;DHT22;1487;51.470;6.938;2023-03-12T11:23:44;5.80;99.90
2955;DHT22;1487;51.470;6.938;2023-03-12T11:26:16;5.80;99.90
2955;DHT22;1487;51.470;6.938;2023-03-12T11:28:46;5.90;99.90
2955;DHT22;1487;51.470;6.938;2023-03-12T11:31:18;6.00;99.90
2955;DHT22;1487;51.470;6.938;2023-03-12T11:33:46;6.10;99.90
2955;DHT22;1487;51.470;6.938;2023-03-12T11:36:32;6.20;99.90
2955;DHT22;1487;51.470;6.938;2023-03-12T11:39:13;6.20;99.90
2955;DHT22;1487;51.470;6.938;2023-03-12T11:44:53;6.40;99.90
2955;DHT22;1487;51.470;6.938;2023-03-12T11:47:38;6.50;99.90
2955;DHT22;1487;51.470;6.938;2023-03-12T11:50:24;6.60;99.90
2955;DHT22;1487;51.470;6.938;2023-03-12T11:53:08;6.70;99.90
2955;DHT22;1487;51.470;6.938;2023-03-12T11:55:53;6.80;99.90
2955;DHT22;1487;51.470;6.938;2023-03-12T11:58:31;6.80;99.90
2955;DHT22;1487;51.470;6.938;2023-03-12T12:01:10;6.80;99.90
2955;DHT22;1487;51.470;6.938;2023-03-12T12:03:48;6.90;99.90
2955;DHT22;1487;51.470;6.938;2023-03-12T12:06:25;7.00;99.90
2955;DHT22;1487;51.470;6.938;2023-03-12T12:09:01;7.10;99.90
2955;DHT22;1487;51.470;6.938;2023-03-12T12:11:39;7.10;99.90
2955;DHT22;1487;51.470;6.938;2023-03-12T12:14:15;7.10;99.90
2955;DHT22;1487;51.470;6.938;2023-03-12T12:16:58;7.10;99.90
2955;DHT22;1487;51.470;6.938;2023-03-12T12:19:38;7.10;99.90
2955;DHT22;1487;51.470;6.938;2023-03-12T12:22:20;7.20;99.90
2955;DHT22;1487;51.470;6.938;2023-03-12T12:25:24;7.30;99.90
2955;DHT22;1487;51.470;6.938;2023-03-12T12:28:05;7.40;99.90
2955;DHT22;1487;51.470;6.938;2023-03-12T12:30:45;7.50;99.90
2955;DHT22;1487;51.470;6.938;2023-03-12T12:33:28;7.60;99.90
2955;DHT22;1487;51.470;6.938;2023-03-12T12:35:58;7.70;99.90
2955;DHT22;1487;51.470;6.938;2023-03-12T12:38:28;7.70;99.90
2955;DHT22;1487;51.470;6.938;2023-03-12T12:41:03;7.70;99.90
2955;DHT22;1487;51.470;6.938;2023-03-12T12:43:36;7.70;99.90
2955;DHT22;1487;51.470;6.938;2023-03-12T12:46:06;7.80;99.90
2955;DHT22;1487;51.470;6.938;2023-03-12T12:48:37;7.80;99.90
2955;DHT22;1487;51.470;6.938;2023-03-12T12:51:05;7.80;99.90
2955;DHT22;1487;51.470;6.938;2023-03-12T12:53:39;7.90;99.90
2955;DHT22;1487;51.470;6.938;2023-03-12T12:56:18;8.00;99.90
2955;DHT22;1487;51.470;6.938;2023-03-12T12:59:04;8.10;99.90
2955;DHT22;1487;51.470;6.938;2023-03-12T13:01:34;8.30;99.90
2955;DHT22;1487;51.470;6.938;2023-03-12T13:04:04;8.50;99.90
2955;DHT22;1487;51.470;6.938;2023-03-12T13:06:55;8.80;99.90
2955;DHT22;1487;51.470;6.938;2023-03-12T13:09:34;9.10;99.90
2955;DHT22;1487;51.470;6.938;2023-03-12T13:12:07;9.20;99.90
2955;DHT22;1487;51.470;6.938;2023-03-12T13:14:40;9.30;99.90
2955;DHT22;1487;51.470;6.938;2023-03-12T13:17:27;9.20;99.90
2955;DHT22;1487;51.470;6.938;2023-03-12T13:19:59;9.10;99.90
2955;DHT22;1487;51.470;6.938;2023-03-12T13:22:58;9.10;99.90
2955;DHT22;1487;51.470;6.938;2023-03-12T13:25:38;9.20;99.90
2955;DHT22;1487;51.470;6.938;2023-03-12T13:28:37;9.30;99.90
2955;DHT22;1487;51.470;6.938;2023-03-12T13:31:36;9.50;99.90
2955;DHT22;1487;51.470;6.938;2023-03-12T13:37:28;9.70;99.90
2955;DHT22;1487;51.470;6.938;2023-03-12T13:39:59;9.80;99.90
2955;DHT22;1487;51.470;6.938;2023-03-12T13:42:39;9.90;99.90
2955;DHT22;1487;51.470;6.938;2023-03-12T13:45:27;9.90;99.90
2955;DHT22;1487;51.470;6.938;2023-03-12T13:47:59;9.90;99.90
2955;DHT22;1487;51.470;6.938;2023-03-12T13:50:28;10.20;99.90
2955;DHT22;1487;51.470;6.938;2023-03-12T13:53:02;10.40;99.90
2955;DHT22;1487;51.470;6.938;2023-03-12T13:55:30;10.60;99.90
2955;DHT22;1487;51.470;6.938;2023-03-12T13:58:04;10.70;99.90
2955;DHT22;1487;51.470;6.938;2023-03-12T14:00:37;10.80;99.90
2955;DHT22;1487;51.470;6.938;2023-03-12T14:03:12;10.80;99.90
2955;DHT22;1487;51.470;6.938;2023-03-12T14:05:50;10.80;99.90
2955;DHT22;1487;51.470;6.938;2023-03-12T14:08:32;10.80;99.90
2955;DHT22;1487;51.470;6.938;2023-03-12T14:11:18;10.90;99.90
2955;DHT22;1487;51.470;6.938;2023-03-12T14:14:00;10.90;99.90
2955;DHT22;1487;51.470;6.938;2023-03-12T14:16:35;10.90;99.90
2955;DHT22;1487;51.470;6.938;2023-03-12T14:19:08;11.00;99.90
2955;DHT22;1487;51.470;6.938;2023-03-12T14:21:39;10.90;99.90
2955;DHT22;1487;51.470;6.938;2023-03-12T14:24:19;10.80;99.90
2955;DHT22;1487;51.470;6.938;2023-03-12T14:26:48;10.80;99.90
2955;DHT22;1487;51.470;6.938;2023-03-12T14:29:20;10.80;99.90
2955;DHT22;1487;51.470;6.938;2023-03-12T14:31:49;10.80;99.90
2955;DHT22;1487;51.470;6.938;2023-03-12T14:34:20;10.80;99.90
2955;DHT22;1487;51.470;6.938;2023-03-12T14:36:51;10.70;99.90
2955;DHT22;1487;51.470;6.938;2023-03-12T14:39:26;10.70;99.90
2955;DHT22;1487;51.470;6.938;2023-03-12T14:41:56;10.60;99.90
2955;DHT22;1487;51.470;6.938;2023-03-12T14:44:26;10.60;99.90
2955;DHT22;1487;51.470;6.938;2023-03-12T14:46:58;10.50;99.90
2955;DHT22;1487;51.470;6.938;2023-03-12T14:49:27;10.50;99.90
2955;DHT22;1487;51.470;6.938;2023-03-12T14:51:54;10.50;99.90
2955;DHT22;1487;51.470;6.938;2023-03-12T14:54:23;10.60;99.90
2955;DHT22;1487;51.470;6.938;2023-03-12T14:56:50;10.60;99.90
2955;DHT22;1487;51.470;6.938;2023-03-12T14:59:23;10.70;99.90
2955;DHT22;1487;51.470;6.938;2023-03-12T15:01:57;10.70;99.90
2955;DHT22;1487;51.470;6.938;2023-03-12T15:04:26;10.90;99.90
2955;DHT22;1487;51.470;6.938;2023-03-12T15:06:56;11.00;99.90
2955;DHT22;1487;51.470;6.938;2023-03-12T15:09:26;11.10;99.90
2955;DHT22;1487;51.470;6.938;2023-03-12T15:11:56;11.20;99.90
2955;DHT22;1487;51.470;6.938;2023-03-12T15:14:24;11.20;99.90
2955;DHT22;1487;51.470;6.938;2023-03-12T15:16:52;11.20;99.90
2955;DHT22;1487;51.470;6.938;2023-03-12T15:19:24;11.20;99.90
2955;DHT22;1487;51.470;6.938;2023-03-12T15:21:54;11.20;99.90
2955;DHT22;1487;51.470;6.938;2023-03-12T15:24:21;11.20;99.90
2955;DHT22;1487;51.470;6.938;2023-03-12T15:26:48;11.20;99.90
2955;DHT22;1487;51.470;6.938;2023-03-12T15:29:20;11.20;99.90
2955;DHT22;1487;51.470;6.938;2023-03-12T15:31:51;11.10;99.90
2955;DHT22;1487;51.470;6.938;2023-03-12T15:34:28;11.20;99.90
2955;DHT22;1487;51.470;6.938;2023-03-12T15:36:58;11.10;99.90
2955;DHT22;1487;51.470;6.938;2023-03-12T15:39:27;11.10;99.90
2955;DHT22;1487;51.470;6.938;2023-03-12T15:41:59;11.10;99.90
2955;DHT22;1487;51.470;6.938;2023-03-12T15:44:28;11.10;99.90
2955;DHT22;1487;51.470;6.938;2023-03-12T15:47:02;11.10;99.90
2955;DHT22;1487;51.470;6.938;2023-03-12T15:49:34;11.10;99.90
2955;DHT22;1487;51.470;6.938;2023-03-12T15:52:06;11.10;99.90
2955;DHT22;1487;51.470;6.938;2023-03-12T15:54:59;11.10;99.90
2955;DHT22;1487;51.470;6.938;2023-03-12T15:57:27;11.10;99.90
2955;DHT22;1487;51.470;6.938;2023-03-12T16:00:19;11.10;99.90
2955;DHT22;1487;51.470;6.938;2023-03-12T16:02:51;11.10;99.90
2955;DHT22;1487;51.470;6.938;2023-03-12T16:05:19;11.10;99.90
2955;DHT22;1487;51.470;6.938;2023-03-12T16:07:48;11.10;99.90
2955;DHT22;1487;51.470;6.938;2023-03-12T16:10:17;11.20;99.90
2955;DHT22;1487;51.470;6.938;2023-03-12T16:12:45;11.20;99.90
2955;DHT22;1487;51.470;6.938;2023-03-12T16:15:14;11.20;99.90
2955;DHT22;1487;51.470;6.938;2023-03-12T16:17:41;11.20;99.90
2955;DHT22;1487;51.470;6.938;2023-03-12T16:20:11;11.30;99.90
2955;DHT22;1487;51.470;6.938;2023-03-12T16:22:38;11.30;99.90
2955;DHT22;1487;51.470;6.938;2023-03-12T16:25:07;11.20;99.90
2955;DHT22;1487;51.470;6.938;2023-03-12T16:27:36;11.20;99.90
2955;DHT22;1487;51.470;6.938;2023-03-12T16:30:09;11.20;99.90
2955;DHT22;1487;51.470;6.938;2023-03-12T16:32:37;11.20;99.90
2955;DHT22;1487;51.470;6.938;2023-03-12T16:35:10;11.20;99.90
2955;DHT22;1487;51.470;6.938;2023-03-12T16:37:38;11.20;99.90
2955;DHT22;1487;51.470;6.938;2023-03-12T16:40:08;11.10;99.90
2955;DHT22;1487;51.470;6.938;2023-03-12T16:42:35;11.10;99.90
2955;DHT22;1487;51.470;6.938;2023-03-12T16:45:03;11.10;99.90